Time;durP1;ratioP1;P1;durP2;ratioP2;P2;SDS_P1;SDS_P2;PMS_P1;PMS_P2;Temp;Humidity;BMP_temperature;BMP_pressure;BME280_temperature;BME280_humidity;BME280_pressure;Samples;Min_cycle;Max_cycle;Signal;HPM_P1;HPM_P2
2022/06/07 00:02:28;;;;;;;1999.90;999.90;;;13.80;99.90;;;;;;5055677;28;20482;-68
2022/06/07 00:04:56;;;;;;;1999.90;999.90;;;13.80;99.90;;;;;;5040044;28;20462;-68
2022/06/07 00:07:24;;;;;;;1999.90;999.90;;;13.90;99.90;;;;;;5042022;28;20459;-68
2022/06/07 00:09:51;;;;;;;1999.90;999.90;;;13.90;99.90;;;;;;5043059;28;20466;-68
2022/06/07 00:12:17;;;;;;;1999.90;999.90;;;14.00;99.90;;;;;;5039047;28;21061;-68
2022/06/07 00:14:46;;;;;;;1999.90;999.90;;;14.00;99.90;;;;;;5043850;28;20862;-69
2022/06/07 00:17:13;;;;;;;1999.90;999.90;;;13.90;99.90;;;;;;5032748;28;20795;-68
2022/06/07 00:19:41;;;;;;;1999.90;999.90;;;14.00;99.90;;;;;;5040523;28;20458;-69
2022/06/07 00:22:08;;;;;;;1999.90;999.90;;;13.90;99.90;;;;;;5031556;28;20534;-71
2022/06/07 00:24:35;;;;;;;1999.90;999.90;;;13.90;99.90;;;;;;5040196;28;20455;-71
2022/06/07 00:27:02;;;;;;;1999.90;999.90;;;14.00;99.90;;;;;;5037501;28;21004;-70
2022/06/07 00:29:29;;;;;;;1999.90;999.90;;;14.00;99.90;;;;;;5035612;28;20895;-71
2022/06/07 00:31:58;;;;;;;1999.90;999.90;;;14.00;99.90;;;;;;5041690;28;20527;-71
2022/06/07 00:34:25;;;;;;;1999.90;999.90;;;14.10;99.90;;;;;;5036672;28;20990;-71
2022/06/07 00:36:52;;;;;;;1999.90;999.90;;;14.10;99.90;;;;;;5041330;28;20516;-71
2022/06/07 00:39:18;;;;;;;1999.90;999.90;;;14.00;99.90;;;;;;5033311;28;20460;-68
2022/06/07 00:41:45;;;;;;;1999.90;999.90;;;14.00;99.90;;;;;;5040493;28;20958;-68
2022/06/07 00:44:33;;;;;;;1999.90;999.90;;;14.10;99.90;;;;;;5038441;28;20967;-68
2022/06/07 00:47:03;;;;;;;1999.90;999.90;;;14.20;99.90;;;;;;5037959;28;20858;-67
2022/06/07 00:49:35;;;;;;;1999.90;999.90;;;14.30;99.90;;;;;;5039042;28;20517;-68
2022/06/07 00:52:03;;;;;;;1999.90;999.90;;;14.30;99.90;;;;;;5037076;28;20490;-70
2022/06/07 00:54:32;;;;;;;1999.90;999.90;;;14.40;99.90;;;;;;5042190;28;20548;-70
2022/06/07 00:56:59;;;;;;;1999.90;999.90;;;14.30;99.90;;;;;;5037027;28;20466;-71
2022/06/07 00:59:26;;;;;;;1999.90;999.90;;;14.30;99.90;;;;;;5038614;28;20455;-71
2022/06/07 01:01:53;;;;;;;1999.90;999.90;;;14.30;99.90;;;;;;5039423;28;20462;-69
2022/06/07 01:04:23;;;;;;;1999.90;999.90;;;14.30;99.90;;;;;;5034690;28;20509;-71
2022/06/07 01:12:18;;;;;;;1999.90;999.90;;;13.30;99.90;;;;;;5033627;28;20594;-70
2022/06/07 01:14:45;;;;;;;1999.90;999.90;;;13.30;99.90;;;;;;5038186;28;20486;-71
2022/06/07 01:17:12;;;;;;;1999.90;999.90;;;13.30;99.90;;;;;;5032203;28;20463;-69
2022/06/07 01:19:40;;;;;;;1999.90;999.90;;;13.30;99.90;;;;;;5034944;28;20846;-71
2022/06/07 01:22:08;;;;;;;1999.90;999.90;;;13.40;99.90;;;;;;5039670;28;20535;-71
2022/06/07 01:24:35;;;;;;;1999.90;999.90;;;13.60;99.90;;;;;;5038242;28;20513;-71
2022/06/07 01:27:03;;;;;;;1999.90;999.90;;;13.60;99.90;;;;;;5038032;28;20835;-69
2022/06/07 01:29:29;;;;;;;1999.90;999.90;;;13.60;99.90;;;;;;5029247;28;20493;-70
2022/06/07 01:31:56;;;;;;;1999.90;999.90;;;13.70;99.90;;;;;;5039477;28;20470;-70
2022/06/07 01:34:23;;;;;;;1999.90;999.90;;;13.80;99.90;;;;;;5031056;28;20475;-69
2022/06/07 01:36:49;;;;;;;1999.90;999.90;;;13.80;99.90;;;;;;5037525;28;20462;-69
2022/06/07 01:42:02;;;;;;;1999.90;999.90;;;13.80;99.90;;;;;;5036862;28;20531;-70
2022/06/07 01:44:31;;;;;;;1999.90;999.90;;;13.90;99.90;;;;;;5038862;28;20509;-70
2022/06/07 01:47:00;;;;;;;1999.90;999.90;;;14.00;99.90;;;;;;5036717;28;20527;-71
2022/06/07 01:49:27;;;;;;;1999.90;999.90;;;13.80;99.90;;;;;;5037422;28;20463;-71
2022/06/07 01:51:55;;;;;;;1999.90;999.90;;;13.80;99.90;;;;;;5039414;28;20462;-70
2022/06/07 01:54:24;;;;;;;1999.90;999.90;;;13.20;99.90;;;;;;5038891;28;21079;-70
2022/06/07 01:56:51;;;;;;;1999.90;999.90;;;13.10;99.90;;;;;;5033851;28;20528;-69
2022/06/07 01:59:18;;;;;;;1999.90;999.90;;;13.00;99.90;;;;;;5038255;28;20460;-70
2022/06/07 02:01:46;;;;;;;1999.90;999.90;;;12.90;99.90;;;;;;5040945;28;20466;-70
2022/06/07 02:04:13;;;;;;;1999.90;999.90;;;12.80;99.90;;;;;;5036831;28;20462;-70
2022/06/07 02:06:40;;;;;;;1999.90;999.90;;;12.70;99.90;;;;;;5041595;28;20458;-70
2022/06/07 02:09:08;;;;;;;1999.90;999.90;;;12.60;99.90;;;;;;5036699;28;20551;-70
2022/06/07 02:11:37;;;;;;;1999.90;999.90;;;12.50;99.90;;;;;;5036855;28;20521;-70
2022/06/07 02:14:04;;;;;;;1999.90;999.90;;;12.40;99.90;;;;;;5037088;28;20482;-70
2022/06/07 02:16:31;;;;;;;1999.90;999.90;;;12.30;99.90;;;;;;5041141;28;20513;-70
2022/06/07 02:18:58;;;;;;;1999.90;999.90;;;12.30;99.90;;;;;;5038992;28;20466;-70
2022/06/07 02:21:25;;;;;;;1999.90;999.90;;;12.30;99.90;;;;;;5039338;28;20464;-70
2022/06/07 02:23:53;;;;;;;1999.90;999.90;;;12.30;99.90;;;;;;5039647;28;20478;-70
2022/06/07 02:26:23;;;;;;;1999.90;999.90;;;12.30;99.90;;;;;;5034858;28;20530;-70
2022/06/07 02:28:55;;;;;;;1999.90;999.90;;;12.20;99.90;;;;;;5041935;28;20461;-70
2022/06/07 02:31:24;;;;;;;1999.90;999.90;;;12.00;99.90;;;;;;5038882;28;20459;-70
2022/06/07 02:33:51;;;;;;;1999.90;999.90;;;12.00;99.90;;;;;;5032967;28;20490;-70
2022/06/07 02:36:18;;;;;;;1999.90;999.90;;;11.90;99.90;;;;;;5037053;28;20968;-70
2022/06/07 02:38:46;;;;;;;1999.90;999.90;;;12.00;99.90;;;;;;5037589;28;20512;-70
2022/06/07 02:41:17;;;;;;;1999.90;999.90;;;12.10;99.90;;;;;;5032390;28;20472;-69
2022/06/07 02:43:45;;;;;;;1999.90;999.90;;;12.10;99.90;;;;;;5033146;28;20512;-70
2022/06/07 02:46:12;;;;;;;1999.90;999.90;;;11.90;99.90;;;;;;5029634;28;20470;-70
2022/06/07 02:48:39;;;;;;;1999.90;999.90;;;11.90;99.90;;;;;;5032901;28;20466;-70
2022/06/07 02:51:06;;;;;;;1999.90;999.90;;;11.90;99.90;;;;;;5029347;28;20467;-70
2022/06/07 02:53:33;;;;;;;1999.90;999.90;;;11.90;99.90;;;;;;5040857;28;20559;-70
2022/06/07 02:56:00;;;;;;;1999.90;999.90;;;12.00;99.90;;;;;;5034515;28;20473;-71
2022/06/07 02:58:27;;;;;;;1999.90;999.90;;;12.00;99.90;;;;;;5039284;28;20978;-70
2022/06/07 03:00:55;;;;;;;1999.90;999.90;;;12.10;99.90;;;;;;5034302;28;20459;-70
2022/06/07 03:03:23;;;;;;;1999.90;999.90;;;12.10;99.90;;;;;;5036561;28;20491;-70
2022/06/07 03:05:50;;;;;;;1999.90;999.90;;;12.30;99.90;;;;;;5044127;28;20454;-70
2022/06/07 03:08:18;;;;;;;1999.90;999.90;;;12.50;99.90;;;;;;5035033;28;20463;-71
2022/06/07 03:10:45;;;;;;;1999.90;999.90;;;12.50;99.90;;;;;;5040441;28;20549;-70
2022/06/07 03:13:13;;;;;;;1999.90;999.90;;;12.50;99.90;;;;;;5038589;28;20480;-70
2022/06/07 03:15:39;;;;;;;1999.90;999.90;;;12.40;99.90;;;;;;5045457;28;20486;-70
2022/06/07 03:18:07;;;;;;;1999.90;999.90;;;12.50;99.90;;;;;;5043017;28;20520;-70
2022/06/07 03:20:35;;;;;;;1999.90;999.90;;;12.30;99.90;;;;;;5034087;28;20511;-70
2022/06/07 03:23:02;;;;;;;1999.90;999.90;;;12.50;99.90;;;;;;5041410;28;20486;-70
2022/06/07 03:25:29;;;;;;;1999.90;999.90;;;12.40;99.90;;;;;;5043765;28;20943;-70
2022/06/07 03:27:55;;;;;;;1999.90;999.90;;;12.50;99.90;;;;;;5042881;28;20466;-70
2022/06/07 03:30:22;;;;;;;1999.90;999.90;;;12.50;99.90;;;;;;5042066;28;20475;-68
2022/06/07 03:32:49;;;;;;;1999.90;999.90;;;12.60;99.90;;;;;;5043698;28;20512;-69
2022/06/07 03:35:16;;;;;;;1999.90;999.90;;;12.70;99.90;;;;;;5040346;28;20538;-71
2022/06/07 03:37:45;;;;;;;1999.90;999.90;;;12.70;99.90;;;;;;5044441;28;20520;-71
2022/06/07 03:40:13;;;;;;;1999.90;999.90;;;12.70;99.90;;;;;;5036318;28;20464;-70
2022/06/07 03:42:41;;;;;;;1999.90;999.90;;;12.80;99.90;;;;;;5037711;28;20485;-71
2022/06/07 03:45:08;;;;;;;1999.90;999.90;;;12.90;99.90;;;;;;5040452;28;20458;-71
2022/06/07 03:47:37;;;;;;;1999.90;999.90;;;12.90;99.90;;;;;;5041902;28;20465;-71
2022/06/07 03:50:05;;;;;;;1999.90;999.90;;;13.00;99.90;;;;;;5040140;28;20470;-70
2022/06/07 03:52:31;;;;;;;1999.90;999.90;;;13.00;99.90;;;;;;5044123;28;20524;-71
2022/06/07 03:54:59;;;;;;;1999.90;999.90;;;13.00;99.90;;;;;;5040872;28;20528;-71
2022/06/07 03:57:26;;;;;;;1999.90;999.90;;;12.80;99.90;;;;;;5042782;28;20521;-70
2022/06/07 03:59:52;;;;;;;1999.90;999.90;;;12.90;99.90;;;;;;5043581;28;20520;-70
2022/06/07 04:02:19;;;;;;;1999.90;999.90;;;13.00;99.90;;;;;;5040499;28;20833;-71
2022/06/07 04:04:46;;;;;;;1999.90;999.90;;;13.10;99.90;;;;;;5043735;28;20458;-70
2022/06/07 04:09:57;;;;;;;1999.90;999.90;;;13.50;99.90;;;;;;5035387;28;20465;-70
2022/06/07 04:12:25;;;;;;;1999.90;999.90;;;13.60;99.90;;;;;;5038409;28;20903;-71
2022/06/07 04:14:51;;;;;;;1999.90;999.90;;;13.50;99.90;;;;;;5039636;28;20482;-70
2022/06/07 04:17:18;;;;;;;1999.90;999.90;;;13.50;99.90;;;;;;5033799;28;21026;-71
2022/06/07 04:19:44;;;;;;;1999.90;999.90;;;13.60;99.90;;;;;;5039831;28;20468;-71
2022/06/07 04:22:12;;;;;;;1999.90;999.90;;;13.70;99.90;;;;;;5036276;28;20881;-70
2022/06/07 04:24:39;;;;;;;1999.90;999.90;;;13.70;99.90;;;;;;5036282;28;20462;-71
2022/06/07 04:27:06;;;;;;;1999.90;999.90;;;13.80;99.90;;;;;;5029679;28;20463;-70
2022/06/07 04:29:34;;;;;;;1999.90;999.90;;;14.00;99.90;;;;;;5045150;28;20958;-70
2022/06/07 04:32:00;;;;;;;1999.90;999.90;;;14.10;99.90;;;;;;5043942;28;20927;-70
2022/06/07 04:34:27;;;;;;;1999.90;999.90;;;14.60;99.90;;;;;;5039568;28;20982;-71
2022/06/07 04:36:54;;;;;;;1999.90;999.90;;;15.10;99.90;;;;;;5039227;28;20557;-70
2022/06/07 04:39:21;;;;;;;1999.90;999.90;;;15.50;99.90;;;;;;5041168;28;20467;-71
2022/06/07 04:41:47;;;;;;;1999.90;999.90;;;15.70;99.90;;;;;;5043098;28;20860;-71
2022/06/07 04:44:14;;;;;;;1999.90;999.90;;;16.10;99.90;;;;;;5040348;28;20467;-70
2022/06/07 04:46:42;;;;;;;1999.90;999.90;;;16.30;99.90;;;;;;5043585;28;20512;-70
2022/06/07 04:49:09;;;;;;;1999.90;999.90;;;16.50;99.90;;;;;;5040201;28;20459;-71
2022/06/07 04:51:38;;;;;;;1999.90;999.90;;;16.80;99.90;;;;;;5038522;28;20457;-72
2022/06/07 04:54:05;;;;;;;1999.90;999.90;;;17.00;99.90;;;;;;5039471;28;20469;-71
2022/06/07 04:56:35;;;;;;;1999.90;999.90;;;16.70;99.90;;;;;;5043446;28;20536;-70
2022/06/07 04:59:04;;;;;;;1999.90;999.90;;;16.30;99.90;;;;;;5040596;28;20462;-71
2022/06/07 05:01:33;;;;;;;1999.90;999.90;;;16.80;99.90;;;;;;5035649;28;20517;-71
2022/06/07 05:04:02;;;;;;;1999.90;999.90;;;17.20;99.90;;;;;;5040529;28;20848;-71
2022/06/07 05:06:31;;;;;;;1999.90;999.90;;;17.30;99.90;;;;;;5030724;28;20463;-71
2022/06/07 05:09:00;;;;;;;1999.90;999.90;;;17.50;99.90;;;;;;5040615;28;20519;-71
2022/06/07 05:11:27;;;;;;;1999.90;999.90;;;17.70;99.90;;;;;;5037939;28;20810;-71
2022/06/07 05:13:55;;;;;;;1999.90;999.90;;;17.90;99.90;;;;;;5038712;28;20478;-70
2022/06/07 05:16:21;;;;;;;1999.90;999.90;;;17.70;99.90;;;;;;5034940;28;21263;-71
2022/06/07 05:18:49;;;;;;;1999.90;999.90;;;17.70;99.90;;;;;;5028715;28;20521;-67
2022/06/07 05:21:17;;;;;;;1999.90;999.90;;;17.50;99.90;;;;;;5025433;28;20452;-68
2022/06/07 05:23:44;;;;;;;1999.90;999.90;;;17.60;99.90;;;;;;5029092;28;20494;-69
2022/06/07 05:26:15;;;;;;;1999.90;999.90;;;17.70;99.90;;;;;;5034231;28;20479;-71
2022/06/07 05:28:43;;;;;;;1999.90;999.90;;;17.90;99.90;;;;;;5029402;28;20612;-71
2022/06/07 05:31:11;;;;;;;1999.90;999.90;;;18.30;99.90;;;;;;5037366;28;21228;-71
2022/06/07 05:33:38;;;;;;;1999.90;999.90;;;18.40;99.90;;;;;;5035029;28;20540;-70
2022/06/07 05:36:06;;;;;;;1999.90;999.90;;;18.10;99.90;;;;;;5038219;28;20539;-71
2022/06/07 05:38:34;;;;;;;1999.90;999.90;;;17.80;99.90;;;;;;5029254;28;20467;-71
2022/06/07 05:41:01;;;;;;;1999.90;999.90;;;18.00;99.90;;;;;;5024879;28;20464;-71
2022/06/07 05:43:28;;;;;;;1999.90;999.90;;;18.50;99.90;;;;;;5032138;28;20535;-72
2022/06/07 05:45:57;;;;;;;1999.90;999.90;;;19.00;99.90;;;;;;5026890;28;20455;-71
2022/06/07 05:48:24;;;;;;;1999.90;999.90;;;19.00;99.90;;;;;;5024958;28;20460;-71
2022/06/07 05:50:51;;;;;;;1999.90;999.90;;;19.00;99.90;;;;;;5021236;28;20471;-71
2022/06/07 05:53:19;;;;;;;1999.90;999.90;;;19.00;99.90;;;;;;5061513;22;20889;-68
2022/06/07 05:55:48;;;;;;;1999.90;999.90;;;19.20;99.90;;;;;;5066016;28;20996;-70
2022/06/07 05:58:15;;;;;;;1999.90;999.90;;;19.30;99.90;;;;;;5060677;28;20873;-68
2022/06/07 06:00:42;;;;;;;1999.90;999.90;;;19.60;99.90;;;;;;5063899;28;20850;-69
2022/06/07 06:03:11;;;;;;;1999.90;999.90;;;19.50;99.90;;;;;;5071137;28;20481;-69
2022/06/07 06:05:38;;;;;;;1999.90;999.90;;;19.20;99.90;;;;;;5062813;28;20959;-69
2022/06/07 06:11:03;;;;;;;1999.90;999.90;;;19.60;99.90;;;;;;5070672;28;20445;-69
2022/06/07 06:13:30;;;;;;;1999.90;999.90;;;19.70;99.30;;;;;;5070692;28;20485;-69
2022/06/07 06:16:01;;;;;;;1999.90;999.90;;;19.60;98.40;;;;;;5072422;28;20485;-69
2022/06/07 06:18:28;;;;;;;1999.90;999.90;;;19.50;98.00;;;;;;5076559;28;20445;-68
2022/06/07 06:20:55;;;;;;;1999.90;999.90;;;19.50;98.50;;;;;;5070615;28;20457;-69
2022/06/07 06:23:22;;;;;;;1999.90;999.90;;;19.80;98.10;;;;;;5067084;28;20489;-69
2022/06/07 06:25:51;;;;;;;1999.90;999.90;;;19.60;96.10;;;;;;5070468;28;20493;-69
2022/06/07 06:28:17;;;;;;;1999.90;999.90;;;19.80;95.20;;;;;;5070413;28;20548;-69
2022/06/07 06:30:44;;;;;;;1999.90;999.90;;;19.80;94.70;;;;;;5068692;28;20562;-69
2022/06/07 06:33:12;;;;;;;1999.90;999.90;;;20.10;95.20;;;;;;5066579;28;20488;-70
2022/06/07 06:35:39;;;;;;;1999.90;999.90;;;20.50;94.70;;;;;;5068511;28;20520;-70
2022/06/07 06:38:05;;;;;;;1999.90;999.90;;;20.90;94.30;;;;;;5074305;28;20483;-70
2022/06/07 06:40:32;;;;;;;1999.90;999.90;;;21.10;92.80;;;;;;5079292;28;20477;-66
2022/06/07 06:43:00;;;;;;;1999.90;999.90;;;20.90;92.90;;;;;;5069291;28;20461;-69
2022/06/07 06:45:27;;;;;;;1999.90;999.90;;;20.90;92.10;;;;;;5070493;28;20454;-69
2022/06/07 06:47:54;;;;;;;1999.90;999.90;;;20.80;92.80;;;;;;5078641;28;20462;-69
2022/06/07 06:50:20;;;;;;;1999.90;999.90;;;20.70;93.30;;;;;;5073258;28;20457;-69
2022/06/07 06:52:47;;;;;;;1999.90;999.90;;;21.00;94.10;;;;;;5081699;28;20457;-69
2022/06/07 06:55:14;;;;;;;1999.90;999.90;;;21.00;93.10;;;;;;5072368;28;20469;-69
2022/06/07 06:57:41;;;;;;;1999.90;999.90;;;21.00;93.10;;;;;;5083515;28;20918;-69
2022/06/07 07:00:10;;;;;;;1999.90;999.90;;;21.20;92.60;;;;;;5077574;28;20457;-69
2022/06/07 07:02:37;;;;;;;1999.90;999.90;;;21.50;93.10;;;;;;5083009;28;20489;-69
2022/06/07 07:05:04;;;;;;;1999.90;999.90;;;21.10;93.20;;;;;;5078568;28;20473;-69
2022/06/07 07:07:31;;;;;;;1999.90;999.90;;;20.80;93.00;;;;;;5075901;28;20457;-68
2022/06/07 07:09:58;;;;;;;1999.90;999.90;;;20.60;92.60;;;;;;5082932;28;20887;-69
2022/06/07 07:12:25;;;;;;;1999.90;999.90;;;20.40;92.80;;;;;;5078483;28;20471;-70
2022/06/07 07:14:52;;;;;;;1999.90;999.90;;;20.40;93.10;;;;;;5074057;28;20527;-69
2022/06/07 07:17:20;;;;;;;1999.90;999.90;;;20.50;92.90;;;;;;5070512;28;20556;-69
2022/06/07 07:19:46;;;;;;;1999.90;999.90;;;20.20;93.10;;;;;;5069936;28;20969;-70
2022/06/07 07:22:13;;;;;;;1999.90;999.90;;;20.40;93.20;;;;;;5072315;28;20453;-69
2022/06/07 07:24:41;;;;;;;1999.90;999.90;;;20.90;93.40;;;;;;5076862;28;20870;-68
2022/06/07 07:27:07;;;;;;;1999.90;999.90;;;21.10;92.70;;;;;;5069255;28;20506;-69
2022/06/07 07:29:34;;;;;;;1999.90;999.90;;;20.80;91.60;;;;;;5074978;28;20506;-68
2022/06/07 07:32:01;;;;;;;1999.90;999.90;;;20.80;92.60;;;;;;5071252;28;20457;-69
2022/06/07 07:34:29;;;;;;;1999.90;999.90;;;21.30;92.20;;;;;;5072845;28;20538;-69
2022/06/07 07:36:57;;;;;;;1999.90;999.90;;;21.40;91.70;;;;;;5073840;28;20515;-69
2022/06/07 07:39:25;;;;;;;1999.90;999.90;;;21.40;91.30;;;;;;5076088;28;20499;-70
2022/06/07 07:41:54;;;;;;;1999.90;999.90;;;21.40;91.30;;;;;;5075410;28;20491;-70
2022/06/07 07:44:23;;;;;;;1999.90;999.90;;;20.80;91.30;;;;;;5074846;28;21087;-71
2022/06/07 07:46:53;;;;;;;1999.90;999.90;;;20.80;92.40;;;;;;5074539;28;20464;-71
2022/06/07 07:49:22;;;;;;;1999.90;999.90;;;21.40;92.20;;;;;;5077349;28;20975;-69
2022/06/07 07:51:53;;;;;;;1999.90;999.90;;;21.70;92.30;;;;;;5076794;28;20460;-68
2022/06/07 07:54:22;;;;;;;1999.90;999.90;;;22.20;91.60;;;;;;5074209;28;20485;-69
2022/06/07 07:56:49;;;;;;;1999.90;999.90;;;21.90;91.90;;;;;;5072262;28;20987;-69
2022/06/07 07:59:18;;;;;;;1999.90;999.90;;;21.60;92.70;;;;;;5070887;28;20511;-69
2022/06/07 08:01:46;;;;;;;1999.90;999.90;;;21.80;92.80;;;;;;5081459;28;20543;-69
2022/06/07 08:04:13;;;;;;;1999.90;999.90;;;22.10;92.00;;;;;;5074263;28;20568;-69
2022/06/07 08:06:40;;;;;;;1999.90;999.90;;;22.50;92.30;;;;;;5075736;28;20462;-72
2022/06/07 08:09:10;;;;;;;1999.90;999.90;;;22.40;92.40;;;;;;5071935;28;20472;-69
2022/06/07 08:11:40;;;;;;;1999.90;999.90;;;22.20;92.40;;;;;;5081594;28;21030;-69
2022/06/07 08:14:10;;;;;;;1999.90;999.90;;;22.10;92.40;;;;;;5075795;28;20502;-69
2022/06/07 08:16:37;;;;;;;1999.90;999.90;;;21.90;92.10;;;;;;5070551;28;20666;-69
2022/06/07 08:19:06;;;;;;;1999.90;999.90;;;21.90;92.20;;;;;;5075939;28;20483;-68
2022/06/07 08:21:33;;;;;;;1999.90;999.90;;;21.70;91.80;;;;;;5070838;28;20547;-69
2022/06/07 08:23:59;;;;;;;1999.90;999.90;;;21.50;91.80;;;;;;5070086;28;20530;-69
2022/06/07 08:26:29;;;;;;;1999.90;999.90;;;21.30;92.30;;;;;;5076824;28;20503;-68
2022/06/07 08:28:56;;;;;;;1999.90;999.90;;;21.10;92.30;;;;;;5077905;28;20475;-69
2022/06/07 08:31:24;;;;;;;1999.90;999.90;;;21.20;92.80;;;;;;5070064;28;20457;-69
2022/06/07 08:39:20;;;;;;;1999.90;999.90;;;21.10;92.20;;;;;;5069831;28;20464;-69
2022/06/07 08:41:51;;;;;;;1999.90;999.90;;;21.20;92.70;;;;;;5067782;28;20461;-69
2022/06/07 08:44:26;;;;;;;1999.90;999.90;;;21.30;92.50;;;;;;5071367;28;20828;-69
2022/06/07 08:46:56;;;;;;;1999.90;999.90;;;21.70;92.10;;;;;;5065560;28;20457;-68
2022/06/07 08:49:23;;;;;;;1999.90;999.90;;;22.10;91.50;;;;;;5070401;28;20461;-69
2022/06/07 08:51:52;;;;;;;1999.90;999.90;;;21.70;90.60;;;;;;5072339;28;20456;-70
2022/06/07 08:54:24;;;;;;;1999.90;999.90;;;21.80;91.10;;;;;;5070939;28;20485;-69
2022/06/07 08:56:52;;;;;;;1999.90;999.90;;;22.00;90.90;;;;;;5070445;28;20549;-70
2022/06/07 08:59:21;;;;;;;1999.90;999.90;;;22.40;91.40;;;;;;5068656;28;20462;-69
2022/06/07 09:02:00;;;;;;;1999.90;999.90;;;22.40;90.80;;;;;;5071723;28;20974;-69
2022/06/07 09:04:30;;;;;;;1999.90;999.90;;;22.40;91.10;;;;;;5069514;28;20542;-70
2022/06/07 09:07:00;;;;;;;1999.90;999.90;;;22.80;91.00;;;;;;5071307;28;20472;-69
2022/06/07 09:12:09;;;;;;;1999.90;999.90;;;22.50;90.80;;;;;;5071832;28;20461;-69
2022/06/07 09:12:20;;;;;;;1999.90;999.90;;;22.80;90.80;;;;;;5069602;28;20511;-69
2022/06/07 09:14:50;;;;;;;1999.90;999.90;;;22.30;90.00;;;;;;5069029;28;20883;-69
2022/06/07 09:17:19;;;;;;;1999.90;999.90;;;22.00;90.90;;;;;;5070109;28;20542;-69
2022/06/07 09:19:48;;;;;;;1999.90;999.90;;;22.40;91.30;;;;;;5073590;28;20467;-69
2022/06/07 09:22:18;;;;;;;1999.90;999.90;;;23.00;91.00;;;;;;5068876;28;20473;-69
2022/06/07 09:24:53;;;;;;;1999.90;999.90;;;23.20;88.80;;;;;;5079015;28;20485;-70
2022/06/07 09:27:26;;;;;;;1999.90;999.90;;;23.00;89.80;;;;;;5070346;28;20495;-69
2022/06/07 09:29:54;;;;;;;1999.90;999.90;;;23.20;87.80;;;;;;5072649;28;20495;-70
2022/06/07 09:32:23;;;;;;;1999.90;999.90;;;22.90;88.30;;;;;;5054317;28;20442;-70
2022/06/07 09:34:57;;;;;;;1999.90;999.90;;;22.80;89.90;;;;;;5052283;28;20501;-70
2022/06/07 09:37:29;;;;;;;1999.90;999.90;;;22.50;90.10;;;;;;5052638;28;20482;-70
2022/06/07 09:40:19;;;;;;;1999.90;999.90;;;22.80;89.90;;;;;;5053260;28;20435;-70
2022/06/07 09:42:55;;;;;;;1999.90;999.90;;;23.50;89.50;;;;;;5066518;28;20445;-69
2022/06/07 09:45:29;;;;;;;1999.90;999.90;;;23.80;87.10;;;;;;5072167;28;20449;-70
2022/06/07 09:47:58;;;;;;;1999.90;999.90;;;24.30;86.40;;;;;;5073133;28;20508;-70
2022/06/07 09:50:34;;;;;;;1999.90;999.90;;;24.50;86.70;;;;;;5072974;28;20471;-70
2022/06/07 09:53:10;;;;;;;1999.90;999.90;;;24.40;85.10;;;;;;5072356;28;20552;-70
2022/06/07 09:55:41;;;;;;;1999.90;999.90;;;24.30;83.30;;;;;;5072139;28;20449;-70
2022/06/07 09:58:41;;;;;;;1999.90;999.90;;;24.30;84.50;;;;;;5052764;28;20434;-70
2022/06/07 10:01:15;;;;;;;1999.90;999.90;;;24.20;83.90;;;;;;5053095;28;20481;-69
2022/06/07 10:03:48;;;;;;;1999.90;999.90;;;23.90;80.30;;;;;;5052750;28;20465;-69
2022/06/07 10:06:23;;;;;;;1999.90;999.90;;;24.00;80.30;;;;;;5052956;28;20431;-70
2022/06/07 10:09:01;;;;;;;1999.90;999.90;;;24.00;81.20;;;;;;5052636;28;20426;-69
2022/06/07 10:11:34;;;;;;;1999.90;999.90;;;24.20;82.20;;;;;;5060715;28;20442;-69
2022/06/07 10:14:15;;;;;;;1999.90;999.90;;;23.90;79.00;;;;;;5072404;28;20461;-69
2022/06/07 10:16:51;;;;;;;1999.90;999.90;;;24.30;79.30;;;;;;5072540;28;20514;-70
2022/06/07 10:19:34;;;;;;;1999.90;999.90;;;24.30;79.40;;;;;;5072249;28;20445;-69
2022/06/07 10:22:29;;;;;;;1999.90;999.90;;;24.20;81.20;;;;;;5072535;28;20433;-69
2022/06/07 10:25:09;;;;;;;1999.90;999.90;;;24.20;81.20;;;;;;5066357;28;20465;-69
2022/06/07 10:27:42;;;;;;;1999.90;999.90;;;24.50;80.10;;;;;;5072452;28;20421;-69
2022/06/07 10:30:23;;;;;;;1999.90;999.90;;;24.70;79.30;;;;;;5072047;28;20491;-70
2022/06/07 10:33:06;;;;;;;1999.90;999.90;;;24.70;79.00;;;;;;5072103;28;20433;-69
2022/06/07 10:35:43;;;;;;;1999.90;999.90;;;24.40;79.60;;;;;;5072474;28;21136;-69
2022/06/07 10:38:21;;;;;;;1999.90;999.90;;;24.50;80.20;;;;;;5072212;28;20469;-69
2022/06/07 10:40:54;;;;;;;1999.90;999.90;;;24.30;81.20;;;;;;5071755;28;20483;-69
2022/06/07 10:43:25;;;;;;;1999.90;999.90;;;24.30;80.70;;;;;;5069946;28;21002;-69
2022/06/07 10:45:59;;;;;;;1999.90;999.90;;;23.90;80.00;;;;;;5069103;28;20465;-70
2022/06/07 10:48:34;;;;;;;1999.90;999.90;;;24.00;82.30;;;;;;5070414;28;20531;-70
2022/06/07 10:53:57;;;;;;;1999.90;999.90;;;24.20;81.00;;;;;;5066154;28;20457;-69
2022/06/07 10:56:28;;;;;;;1999.90;999.90;;;24.10;81.10;;;;;;5072254;28;20906;-69
2022/06/07 10:58:56;;;;;;;1999.90;999.90;;;24.40;81.50;;;;;;5069161;28;20465;-70
2022/06/07 11:01:35;;;;;;;1999.90;999.90;;;24.60;81.10;;;;;;5069248;28;20465;-73
2022/06/07 11:04:10;;;;;;;1999.90;999.90;;;25.00;80.80;;;;;;5068219;28;20858;-69
2022/06/07 11:09:36;;;;;;;1999.90;999.90;;;24.50;80.80;;;;;;5068551;28;20473;-69
2022/06/07 11:12:11;;;;;;;1999.90;999.90;;;24.60;79.70;;;;;;5066928;28;20453;-69
2022/06/07 11:14:53;;;;;;;1999.90;999.90;;;24.60;81.30;;;;;;5071251;28;20537;-70
2022/06/07 11:17:32;;;;;;;1999.90;999.90;;;24.60;80.50;;;;;;5071629;28;20574;-69
2022/06/07 11:20:01;;;;;;;1999.90;999.90;;;24.40;81.00;;;;;;5069194;28;20500;-68
2022/06/07 11:22:36;;;;;;;1999.90;999.90;;;24.50;81.30;;;;;;5069764;28;20457;-69
2022/06/07 11:25:22;;;;;;;1999.90;999.90;;;24.40;82.60;;;;;;5073608;28;20481;-69
2022/06/07 11:27:53;;;;;;;1999.90;999.90;;;24.20;83.50;;;;;;5073613;28;20535;-71
2022/06/07 11:30:42;;;;;;;1999.90;999.90;;;24.10;83.80;;;;;;5074846;28;21019;-71
2022/06/07 11:33:46;;;;;;;1999.90;999.90;;;23.70;82.10;;;;;;5076573;28;21070;-70
2022/06/07 11:36:36;;;;;;;1999.90;999.90;;;23.70;81.60;;;;;;5074113;28;20452;-71
2022/06/07 11:39:23;;;;;;;1999.90;999.90;;;24.30;82.10;;;;;;5074108;28;20489;-69
2022/06/07 11:41:52;;;;;;;1999.90;999.90;;;24.20;81.50;;;;;;5075948;28;20461;-70
2022/06/07 11:44:38;;;;;;;1999.90;999.90;;;23.70;82.80;;;;;;5072401;28;20485;-70
2022/06/07 11:47:28;;;;;;;1999.90;999.90;;;23.60;81.00;;;;;;5069311;28;20511;-71
2022/06/07 11:50:14;;;;;;;1999.90;999.90;;;23.70;81.30;;;;;;5069347;28;20531;-72
2022/06/07 11:52:58;;;;;;;1999.90;999.90;;;23.80;81.90;;;;;;5065323;28;20468;-71
2022/06/07 11:55:28;;;;;;;1999.90;999.90;;;24.30;82.10;;;;;;5089531;22;20508;-66
2022/06/07 11:58:04;;;;;;;1999.90;999.90;;;23.80;80.60;;;;;;5078218;28;20480;-66
2022/06/07 12:00:48;;;;;;;1999.90;999.90;;;24.00;80.70;;;;;;5084201;28;20437;-66
2022/06/07 12:03:34;;;;;;;1999.90;999.90;;;23.60;81.40;;;;;;5082659;28;20477;-66
2022/06/07 12:06:18;;;;;;;1999.90;999.90;;;24.00;81.90;;;;;;5071088;28;20544;-66
2022/06/07 12:08:58;;;;;;;1999.90;999.90;;;24.10;83.00;;;;;;5046594;28;20446;-66
2022/06/07 12:11:28;;;;;;;1999.90;999.90;;;24.20;83.00;;;;;;5052121;28;20554;-66
2022/06/07 12:14:18;;;;;;;1999.90;999.90;;;24.30;83.00;;;;;;5053725;28;20465;-66
2022/06/07 12:16:52;;;;;;;1999.90;999.90;;;24.30;82.70;;;;;;5052164;28;20488;-67
2022/06/07 12:19:21;;;;;;;1999.90;999.90;;;24.50;83.20;;;;;;5058890;28;20469;-67
2022/06/07 12:21:55;;;;;;;1999.90;999.90;;;24.60;81.70;;;;;;5049728;28;20470;-66
2022/06/07 12:24:24;;;;;;;1999.90;999.90;;;24.40;80.80;;;;;;5057271;28;20506;-64
2022/06/07 12:26:52;;;;;;;1999.90;999.90;;;24.30;82.00;;;;;;5055372;28;20995;-68
2022/06/07 12:29:23;;;;;;;1999.90;999.90;;;24.10;80.80;;;;;;5053753;28;20513;-66
2022/06/07 12:31:51;;;;;;;1999.90;999.90;;;24.00;81.00;;;;;;5061632;28;20458;-67
2022/06/07 12:34:20;;;;;;;1999.90;999.90;;;24.10;82.20;;;;;;5052387;28;20516;-67
2022/06/07 12:36:52;;;;;;;1999.90;999.90;;;24.20;83.60;;;;;;5065485;28;20489;-67
2022/06/07 12:39:19;;;;;;;1999.90;999.90;;;24.80;82.90;;;;;;5057197;28;20950;-67